sensor_id;sensor_type;location;lat;lon;timestamp;temperature;humidity
17887;DHT22;9069;52.044;7.472;2023-07-16T00:02:01;23.70;91.20
17887;DHT22;9069;52.044;7.472;2023-07-16T00:04:28;23.70;91.30
17887;DHT22;9069;52.044;7.472;2023-07-16T00:06:55;23.70;91.40
17887;DHT22;9069;52.044;7.472;2023-07-16T00:09:22;23.70;91.40
17887;DHT22;9069;52.044;7.472;2023-07-16T00:11:48;23.70;91.50
17887;DHT22;9069;52.044;7.472;2023-07-16T00:14:15;23.70;91.60
17887;DHT22;9069;52.044;7.472;2023-07-16T00:16:42;23.70;91.60
17887;DHT22;9069;52.044;7.472;2023-07-16T00:19:14;23.60;91.60
17887;DHT22;9069;52.044;7.472;2023-07-16T00:21:40;23.60;91.80
17887;DHT22;9069;52.044;7.472;2023-07-16T00:24:07;23.60;91.60
17887;DHT22;9069;52.044;7.472;2023-07-16T00:26:34;23.60;91.60
17887;DHT22;9069;52.044;7.472;2023-07-16T00:29:01;23.60;91.70
17887;DHT22;9069;52.044;7.472;2023-07-16T00:31:28;23.50;91.70
17887;DHT22;9069;52.044;7.472;2023-07-16T00:33:55;23.60;91.80
17887;DHT22;9069;52.044;7.472;2023-07-16T00:36:21;23.50;91.80
17887;DHT22;9069;52.044;7.472;2023-07-16T00:38:48;23.50;91.80
17887;DHT22;9069;52.044;7.472;2023-07-16T00:41:16;23.50;92.20
17887;DHT22;9069;52.044;7.472;2023-07-16T00:43:43;23.50;91.90
17887;DHT22;9069;52.044;7.472;2023-07-16T00:46:10;23.40;91.90
17887;DHT22;9069;52.044;7.472;2023-07-16T00:48:37;23.40;92.00
17887;DHT22;9069;52.044;7.472;2023-07-16T00:51:05;23.40;92.10
17887;DHT22;9069;52.044;7.472;2023-07-16T00:53:32;23.40;92.00
17887;DHT22;9069;52.044;7.472;2023-07-16T00:55:59;23.30;92.00
17887;DHT22;9069;52.044;7.472;2023-07-16T00:58:26;23.30;91.90
17887;DHT22;9069;52.044;7.472;2023-07-16T01:00:54;23.30;92.00
17887;DHT22;9069;52.044;7.472;2023-07-16T01:03:21;23.30;92.00
17887;DHT22;9069;52.044;7.472;2023-07-16T01:06:10;23.30;92.00
17887;DHT22;9069;52.044;7.472;2023-07-16T01:08:53;23.30;92.40
17887;DHT22;9069;52.044;7.472;2023-07-16T01:11:22;23.30;92.40
17887;DHT22;9069;52.044;7.472;2023-07-16T01:13:50;23.30;92.50
17887;DHT22;9069;52.044;7.472;2023-07-16T01:16:23;23.20;92.20
17887;DHT22;9069;52.044;7.472;2023-07-16T01:18:50;23.20;92.20
17887;DHT22;9069;52.044;7.472;2023-07-16T01:21:19;23.30;92.20
17887;DHT22;9069;52.044;7.472;2023-07-16T01:24:21;23.20;92.30
17887;DHT22;9069;52.044;7.472;2023-07-16T01:26:59;23.20;92.70
17887;DHT22;9069;52.044;7.472;2023-07-16T01:29:48;23.20;92.20
17887;DHT22;9069;52.044;7.472;2023-07-16T01:32:16;23.20;92.50
17887;DHT22;9069;52.044;7.472;2023-07-16T01:34:44;23.20;92.30
17887;DHT22;9069;52.044;7.472;2023-07-16T01:37:11;23.10;92.30
17887;DHT22;9069;52.044;7.472;2023-07-16T01:39:39;23.10;92.40
17887;DHT22;9069;52.044;7.472;2023-07-16T01:42:06;23.20;92.50
17887;DHT22;9069;52.044;7.472;2023-07-16T01:44:33;23.00;92.40
17887;DHT22;9069;52.044;7.472;2023-07-16T01:47:19;23.00;92.40
17887;DHT22;9069;52.044;7.472;2023-07-16T01:49:48;23.00;92.50
17887;DHT22;9069;52.044;7.472;2023-07-16T01:52:15;23.00;92.40
17887;DHT22;9069;52.044;7.472;2023-07-16T01:54:42;23.00;92.40
17887;DHT22;9069;52.044;7.472;2023-07-16T01:57:08;23.00;92.40
17887;DHT22;9069;52.044;7.472;2023-07-16T01:59:35;22.90;92.40
17887;DHT22;9069;52.044;7.472;2023-07-16T02:02:02;22.90;92.50
17887;DHT22;9069;52.044;7.472;2023-07-16T02:04:29;22.90;92.50
17887;DHT22;9069;52.044;7.472;2023-07-16T02:06:57;22.90;92.50
17887;DHT22;9069;52.044;7.472;2023-07-16T02:09:24;22.90;92.50
17887;DHT22;9069;52.044;7.472;2023-07-16T02:11:52;22.90;92.50
17887;DHT22;9069;52.044;7.472;2023-07-16T02:14:18;22.80;92.60
17887;DHT22;9069;52.044;7.472;2023-07-16T02:16:46;22.80;92.60
17887;DHT22;9069;52.044;7.472;2023-07-16T02:19:13;22.80;92.60
17887;DHT22;9069;52.044;7.472;2023-07-16T02:21:39;22.80;92.60
17887;DHT22;9069;52.044;7.472;2023-07-16T02:24:06;22.80;92.60
17887;DHT22;9069;52.044;7.472;2023-07-16T02:26:33;22.80;92.60
17887;DHT22;9069;52.044;7.472;2023-07-16T02:29:00;22.80;92.60
17887;DHT22;9069;52.044;7.472;2023-07-16T02:31:26;22.70;92.60
17887;DHT22;9069;52.044;7.472;2023-07-16T02:33:53;22.70;92.70
17887;DHT22;9069;52.044;7.472;2023-07-16T02:36:20;22.70;92.70
17887;DHT22;9069;52.044;7.472;2023-07-16T02:38:48;22.70;92.70
17887;DHT22;9069;52.044;7.472;2023-07-16T02:41:15;22.60;92.70
17887;DHT22;9069;52.044;7.472;2023-07-16T02:43:42;22.60;92.70
17887;DHT22;9069;52.044;7.472;2023-07-16T02:46:08;22.60;92.70
17887;DHT22;9069;52.044;7.472;2023-07-16T02:48:35;22.60;92.80
17887;DHT22;9069;52.044;7.472;2023-07-16T02:51:02;22.50;92.80
17887;DHT22;9069;52.044;7.472;2023-07-16T02:53:29;22.50;92.80
17887;DHT22;9069;52.044;7.472;2023-07-16T02:55:55;22.50;92.70
17887;DHT22;9069;52.044;7.472;2023-07-16T02:58:22;22.40;92.70
17887;DHT22;9069;52.044;7.472;2023-07-16T03:00:49;22.40;92.70
17887;DHT22;9069;52.044;7.472;2023-07-16T03:03:16;22.40;92.70
17887;DHT22;9069;52.044;7.472;2023-07-16T03:05:43;22.40;92.70
17887;DHT22;9069;52.044;7.472;2023-07-16T03:08:09;22.30;92.80
17887;DHT22;9069;52.044;7.472;2023-07-16T03:10:36;22.30;92.80
17887;DHT22;9069;52.044;7.472;2023-07-16T03:13:03;22.30;92.80
17887;DHT22;9069;52.044;7.472;2023-07-16T03:15:30;22.20;92.80
17887;DHT22;9069;52.044;7.472;2023-07-16T03:17:57;22.20;92.90
17887;DHT22;9069;52.044;7.472;2023-07-16T03:20:23;22.20;92.90
17887;DHT22;9069;52.044;7.472;2023-07-16T03:22:50;22.20;92.90
17887;DHT22;9069;52.044;7.472;2023-07-16T03:25:17;22.10;92.90
17887;DHT22;9069;52.044;7.472;2023-07-16T03:27:44;22.10;93.00
17887;DHT22;9069;52.044;7.472;2023-07-16T03:30:11;22.10;93.00
17887;DHT22;9069;52.044;7.472;2023-07-16T03:32:38;22.00;93.00
17887;DHT22;9069;52.044;7.472;2023-07-16T03:35:19;22.00;93.00
17887;DHT22;9069;52.044;7.472;2023-07-16T03:37:46;22.00;93.00
17887;DHT22;9069;52.044;7.472;2023-07-16T03:40:23;22.00;93.10
17887;DHT22;9069;52.044;7.472;2023-07-16T03:42:51;22.00;93.40
17887;DHT22;9069;52.044;7.472;2023-07-16T03:45:17;22.00;93.20
17887;DHT22;9069;52.044;7.472;2023-07-16T03:47:45;21.90;93.20
17887;DHT22;9069;52.044;7.472;2023-07-16T03:50:12;21.90;93.30
17887;DHT22;9069;52.044;7.472;2023-07-16T03:52:39;21.90;93.30
17887;DHT22;9069;52.044;7.472;2023-07-16T03:55:06;21.90;93.30
17887;DHT22;9069;52.044;7.472;2023-07-16T03:57:33;22.00;93.50
17887;DHT22;9069;52.044;7.472;2023-07-16T04:00:00;21.80;93.50
17887;DHT22;9069;52.044;7.472;2023-07-16T04:02:28;21.80;93.60
17887;DHT22;9069;52.044;7.472;2023-07-16T04:04:55;21.80;93.60
17887;DHT22;9069;52.044;7.472;2023-07-16T04:07:24;21.80;93.70
17887;DHT22;9069;52.044;7.472;2023-07-16T04:09:51;21.80;93.70
17887;DHT22;9069;52.044;7.472;2023-07-16T04:12:18;21.80;93.80
17887;DHT22;9069;52.044;7.472;2023-07-16T04:14:46;21.80;93.90
17887;DHT22;9069;52.044;7.472;2023-07-16T04:17:13;21.80;94.00
17887;DHT22;9069;52.044;7.472;2023-07-16T04:19:40;21.80;94.00
17887;DHT22;9069;52.044;7.472;2023-07-16T04:22:07;21.80;94.00
17887;DHT22;9069;52.044;7.472;2023-07-16T04:24:33;21.80;94.10
17887;DHT22;9069;52.044;7.472;2023-07-16T04:27:00;21.80;94.10
17887;DHT22;9069;52.044;7.472;2023-07-16T04:29:27;21.80;94.20
17887;DHT22;9069;52.044;7.472;2023-07-16T04:31:54;21.80;94.30
17887;DHT22;9069;52.044;7.472;2023-07-16T04:34:20;21.80;94.40
17887;DHT22;9069;52.044;7.472;2023-07-16T04:36:47;21.80;94.50
17887;DHT22;9069;52.044;7.472;2023-07-16T04:39:14;21.80;94.50
17887;DHT22;9069;52.044;7.472;2023-07-16T04:41:41;21.80;94.50
17887;DHT22;9069;52.044;7.472;2023-07-16T04:44:07;21.90;94.60
17887;DHT22;9069;52.044;7.472;2023-07-16T04:46:34;21.90;94.60
17887;DHT22;9069;52.044;7.472;2023-07-16T04:49:02;21.90;94.70
17887;DHT22;9069;52.044;7.472;2023-07-16T04:51:29;22.00;94.70
17887;DHT22;9069;52.044;7.472;2023-07-16T04:53:56;22.10;94.70
17887;DHT22;9069;52.044;7.472;2023-07-16T04:56:22;22.20;94.70
17887;DHT22;9069;52.044;7.472;2023-07-16T04:58:49;22.20;94.60
17887;DHT22;9069;52.044;7.472;2023-07-16T05:01:16;22.30;94.50
17887;DHT22;9069;52.044;7.472;2023-07-16T05:03:43;22.40;94.50
17887;DHT22;9069;52.044;7.472;2023-07-16T05:06:09;22.40;94.30
17887;DHT22;9069;52.044;7.472;2023-07-16T05:08:36;22.50;94.10
17887;DHT22;9069;52.044;7.472;2023-07-16T05:11:03;22.60;93.80
17887;DHT22;9069;52.044;7.472;2023-07-16T05:13:30;22.70;93.70
17887;DHT22;9069;52.044;7.472;2023-07-16T05:15:56;22.70;93.40
17887;DHT22;9069;52.044;7.472;2023-07-16T05:18:23;22.80;93.00
17887;DHT22;9069;52.044;7.472;2023-07-16T05:20:50;22.90;92.80
17887;DHT22;9069;52.044;7.472;2023-07-16T05:23:17;23.00;92.40
17887;DHT22;9069;52.044;7.472;2023-07-16T05:25:50;23.10;92.10
17887;DHT22;9069;52.044;7.472;2023-07-16T05:28:18;23.20;91.60
17887;DHT22;9069;52.044;7.472;2023-07-16T05:30:45;23.30;91.40
17887;DHT22;9069;52.044;7.472;2023-07-16T05:33:11;23.40;91.10
17887;DHT22;9069;52.044;7.472;2023-07-16T05:35:41;23.40;90.80
17887;DHT22;9069;52.044;7.472;2023-07-16T05:38:08;23.50;90.10
17887;DHT22;9069;52.044;7.472;2023-07-16T05:40:35;23.50;90.20
17887;DHT22;9069;52.044;7.472;2023-07-16T05:43:02;23.60;90.10
17887;DHT22;9069;52.044;7.472;2023-07-16T05:45:29;23.70;89.70
17887;DHT22;9069;52.044;7.472;2023-07-16T05:47:56;23.60;88.70
17887;DHT22;9069;52.044;7.472;2023-07-16T05:50:23;23.70;88.30
17887;DHT22;9069;52.044;7.472;2023-07-16T05:52:49;23.70;87.30
17887;DHT22;9069;52.044;7.472;2023-07-16T05:55:17;23.70;86.60
17887;DHT22;9069;52.044;7.472;2023-07-16T05:57:43;23.70;85.40
17887;DHT22;9069;52.044;7.472;2023-07-16T06:00:10;23.80;85.40
17887;DHT22;9069;52.044;7.472;2023-07-16T06:02:37;23.80;85.10
17887;DHT22;9069;52.044;7.472;2023-07-16T06:05:04;23.80;84.90
17887;DHT22;9069;52.044;7.472;2023-07-16T06:07:32;23.90;84.60
17887;DHT22;9069;52.044;7.472;2023-07-16T06:09:59;23.90;84.20
17887;DHT22;9069;52.044;7.472;2023-07-16T06:12:25;24.00;83.80
17887;DHT22;9069;52.044;7.472;2023-07-16T06:14:53;24.00;83.90
17887;DHT22;9069;52.044;7.472;2023-07-16T06:17:20;24.00;83.20
17887;DHT22;9069;52.044;7.472;2023-07-16T06:19:47;24.10;82.80
17887;DHT22;9069;52.044;7.472;2023-07-16T06:22:16;24.20;82.40
17887;DHT22;9069;52.044;7.472;2023-07-16T06:24:43;24.30;82.00
17887;DHT22;9069;52.044;7.472;2023-07-16T06:27:10;24.30;81.80
17887;DHT22;9069;52.044;7.472;2023-07-16T06:29:37;24.60;81.90
17887;DHT22;9069;52.044;7.472;2023-07-16T06:32:04;24.60;81.40
17887;DHT22;9069;52.044;7.472;2023-07-16T06:34:31;24.70;80.60
17887;DHT22;9069;52.044;7.472;2023-07-16T06:36:58;24.80;79.60
17887;DHT22;9069;52.044;7.472;2023-07-16T06:39:24;24.90;79.40
17887;DHT22;9069;52.044;7.472;2023-07-16T06:41:51;25.10;79.40
17887;DHT22;9069;52.044;7.472;2023-07-16T06:44:18;25.20;78.90
17887;DHT22;9069;52.044;7.472;2023-07-16T06:46:45;25.40;78.00
17887;DHT22;9069;52.044;7.472;2023-07-16T06:49:11;25.60;77.10
17887;DHT22;9069;52.044;7.472;2023-07-16T06:51:38;25.70;77.00
17887;DHT22;9069;52.044;7.472;2023-07-16T06:54:06;25.90;76.10
17887;DHT22;9069;52.044;7.472;2023-07-16T06:56:32;26.00;75.10
17887;DHT22;9069;52.044;7.472;2023-07-16T06:58:59;26.20;74.40
17887;DHT22;9069;52.044;7.472;2023-07-16T07:01:26;26.30;73.60
17887;DHT22;9069;52.044;7.472;2023-07-16T07:03:54;26.50;73.40
17887;DHT22;9069;52.044;7.472;2023-07-16T07:06:22;26.70;72.80
17887;DHT22;9069;52.044;7.472;2023-07-16T07:08:51;26.90;71.90
17887;DHT22;9069;52.044;7.472;2023-07-16T07:11:18;27.10;71.50
17887;DHT22;9069;52.044;7.472;2023-07-16T07:13:45;27.20;70.50
17887;DHT22;9069;52.044;7.472;2023-07-16T07:16:12;27.40;69.40
17887;DHT22;9069;52.044;7.472;2023-07-16T07:18:39;27.60;68.50
17887;DHT22;9069;52.044;7.472;2023-07-16T07:21:06;27.70;68.00
17887;DHT22;9069;52.044;7.472;2023-07-16T07:23:33;27.80;67.20
17887;DHT22;9069;52.044;7.472;2023-07-16T07:25:59;27.90;67.50
17887;DHT22;9069;52.044;7.472;2023-07-16T07:28:27;28.00;67.00
17887;DHT22;9069;52.044;7.472;2023-07-16T07:30:54;28.10;66.30
17887;DHT22;9069;52.044;7.472;2023-07-16T07:33:21;28.20;66.60
17887;DHT22;9069;52.044;7.472;2023-07-16T07:35:48;28.40;66.20
17887;DHT22;9069;52.044;7.472;2023-07-16T07:38:15;28.50;65.60
17887;DHT22;9069;52.044;7.472;2023-07-16T07:40:45;28.70;65.10
17887;DHT22;9069;52.044;7.472;2023-07-16T07:43:12;28.80;63.50
17887;DHT22;9069;52.044;7.472;2023-07-16T07:45:38;28.90;63.90
17887;DHT22;9069;52.044;7.472;2023-07-16T07:48:05;29.10;63.40
17887;DHT22;9069;52.044;7.472;2023-07-16T07:50:32;29.20;62.40
17887;DHT22;9069;52.044;7.472;2023-07-16T07:52:59;29.20;61.90
17887;DHT22;9069;52.044;7.472;2023-07-16T07:55:25;29.20;61.70
17887;DHT22;9069;52.044;7.472;2023-07-16T07:57:52;29.30;61.90
17887;DHT22;9069;52.044;7.472;2023-07-16T08:00:19;29.40;61.60
17887;DHT22;9069;52.044;7.472;2023-07-16T08:02:46;29.50;61.30
17887;DHT22;9069;52.044;7.472;2023-07-16T08:05:13;29.70;61.10
17887;DHT22;9069;52.044;7.472;2023-07-16T08:07:40;29.80;61.10
17887;DHT22;9069;52.044;7.472;2023-07-16T08:10:07;30.00;60.90
17887;DHT22;9069;52.044;7.472;2023-07-16T08:12:34;30.20;60.50
17887;DHT22;9069;52.044;7.472;2023-07-16T08:15:01;30.40;60.10
17887;DHT22;9069;52.044;7.472;2023-07-16T08:17:28;30.60;59.60
17887;DHT22;9069;52.044;7.472;2023-07-16T08:19:55;30.80;59.20
17887;DHT22;9069;52.044;7.472;2023-07-16T08:22:22;31.00;58.60
17887;DHT22;9069;52.044;7.472;2023-07-16T08:24:51;31.10;58.00
17887;DHT22;9069;52.044;7.472;2023-07-16T08:27:18;31.30;57.60
17887;DHT22;9069;52.044;7.472;2023-07-16T08:29:46;31.40;57.10
17887;DHT22;9069;52.044;7.472;2023-07-16T08:32:12;31.50;56.10
17887;DHT22;9069;52.044;7.472;2023-07-16T08:34:39;31.50;55.70
17887;DHT22;9069;52.044;7.472;2023-07-16T08:37:06;31.40;55.50
17887;DHT22;9069;52.044;7.472;2023-07-16T08:39:33;31.40;55.50
17887;DHT22;9069;52.044;7.472;2023-07-16T08:42:01;31.40;55.40
17887;DHT22;9069;52.044;7.472;2023-07-16T08:44:29;31.50;55.30
17887;DHT22;9069;52.044;7.472;2023-07-16T08:46:56;31.50;55.00
17887;DHT22;9069;52.044;7.472;2023-07-16T08:49:24;31.60;55.10
17887;DHT22;9069;52.044;7.472;2023-07-16T08:51:52;31.70;54.40
17887;DHT22;9069;52.044;7.472;2023-07-16T08:54:22;31.80;53.90
17887;DHT22;9069;52.044;7.472;2023-07-16T08:56:49;31.90;53.60
17887;DHT22;9069;52.044;7.472;2023-07-16T08:59:17;31.70;53.40
17887;DHT22;9069;52.044;7.472;2023-07-16T09:01:47;31.50;53.20
17887;DHT22;9069;52.044;7.472;2023-07-16T09:04:15;31.50;52.90
17887;DHT22;9069;52.044;7.472;2023-07-16T09:06:42;31.20;52.80
17887;DHT22;9069;52.044;7.472;2023-07-16T09:09:22;31.00;52.80
17887;DHT22;9069;52.044;7.472;2023-07-16T09:11:49;30.80;52.90
17887;DHT22;9069;52.044;7.472;2023-07-16T09:14:17;30.60;53.40
17887;DHT22;9069;52.044;7.472;2023-07-16T09:16:49;30.50;53.80
17887;DHT22;9069;52.044;7.472;2023-07-16T09:19:16;30.40;54.50
17887;DHT22;9069;52.044;7.472;2023-07-16T09:21:48;30.40;54.20
17887;DHT22;9069;52.044;7.472;2023-07-16T09:24:16;30.30;53.90
17887;DHT22;9069;52.044;7.472;2023-07-16T09:26:53;30.30;54.20
17887;DHT22;9069;52.044;7.472;2023-07-16T09:29:21;30.20;54.20
17887;DHT22;9069;52.044;7.472;2023-07-16T09:32:01;30.00;54.10
17887;DHT22;9069;52.044;7.472;2023-07-16T09:34:32;30.00;54.50
17887;DHT22;9069;52.044;7.472;2023-07-16T09:37:00;29.90;54.60
17887;DHT22;9069;52.044;7.472;2023-07-16T09:39:27;29.90;54.40
17887;DHT22;9069;52.044;7.472;2023-07-16T09:41:54;29.80;54.10
17887;DHT22;9069;52.044;7.472;2023-07-16T09:44:23;29.70;54.30
17887;DHT22;9069;52.044;7.472;2023-07-16T09:46:50;29.60;54.40
17887;DHT22;9069;52.044;7.472;2023-07-16T09:49:17;29.60;54.70
17887;DHT22;9069;52.044;7.472;2023-07-16T09:51:45;29.50;54.70
17887;DHT22;9069;52.044;7.472;2023-07-16T09:54:15;29.50;54.80
17887;DHT22;9069;52.044;7.472;2023-07-16T09:56:48;29.40;54.80
17887;DHT22;9069;52.044;7.472;2023-07-16T09:59:17;29.40;54.90
17887;DHT22;9069;52.044;7.472;2023-07-16T10:01:46;29.50;54.90
17887;DHT22;9069;52.044;7.472;2023-07-16T10:04:14;29.50;54.80
17887;DHT22;9069;52.044;7.472;2023-07-16T10:09:41;29.40;54.70
17887;DHT22;9069;52.044;7.472;2023-07-16T10:12:16;29.30;54.90
17887;DHT22;9069;52.044;7.472;2023-07-16T10:14:51;29.30;55.30
17887;DHT22;9069;52.044;7.472;2023-07-16T10:17:24;29.30;55.30
17887;DHT22;9069;52.044;7.472;2023-07-16T10:20:07;29.30;55.20
17887;DHT22;9069;52.044;7.472;2023-07-16T10:22:40;29.30;55.10
17887;DHT22;9069;52.044;7.472;2023-07-16T10:25:22;29.30;54.80
17887;DHT22;9069;52.044;7.472;2023-07-16T10:27:51;29.40;54.60
17887;DHT22;9069;52.044;7.472;2023-07-16T10:30:18;29.40;54.70
17887;DHT22;9069;52.044;7.472;2023-07-16T10:32:45;29.30;54.80
17887;DHT22;9069;52.044;7.472;2023-07-16T10:35:13;29.40;54.80
17887;DHT22;9069;52.044;7.472;2023-07-16T10:37:40;29.30;54.50
17887;DHT22;9069;52.044;7.472;2023-07-16T10:40:12;29.20;54.30
17887;DHT22;9069;52.044;7.472;2023-07-16T10:42:41;29.20;54.20
17887;DHT22;9069;52.044;7.472;2023-07-16T10:45:09;29.10;54.60
17887;DHT22;9069;52.044;7.472;2023-07-16T10:47:38;29.10;55.00
17887;DHT22;9069;52.044;7.472;2023-07-16T10:50:07;29.10;54.70
17887;DHT22;9069;52.044;7.472;2023-07-16T10:52:35;29.10;54.60
17887;DHT22;9069;52.044;7.472;2023-07-16T10:55:02;29.10;54.80
17887;DHT22;9069;52.044;7.472;2023-07-16T10:57:29;29.10;55.20
17887;DHT22;9069;52.044;7.472;2023-07-16T10:59:58;29.10;55.40
17887;DHT22;9069;52.044;7.472;2023-07-16T11:02:25;29.20;55.60
17887;DHT22;9069;52.044;7.472;2023-07-16T11:04:53;29.20;55.30
17887;DHT22;9069;52.044;7.472;2023-07-16T11:07:21;29.20;55.00
17887;DHT22;9069;52.044;7.472;2023-07-16T11:09:53;29.30;55.20
17887;DHT22;9069;52.044;7.472;2023-07-16T11:12:22;29.30;54.80
17887;DHT22;9069;52.044;7.472;2023-07-16T11:14:51;29.40;54.60
17887;DHT22;9069;52.044;7.472;2023-07-16T11:17:19;29.20;54.20
17887;DHT22;9069;52.044;7.472;2023-07-16T11:19:48;29.20;54.20
17887;DHT22;9069;52.044;7.472;2023-07-16T11:22:15;29.10;54.00
17887;DHT22;9069;52.044;7.472;2023-07-16T11:24:43;29.00;54.00
17887;DHT22;9069;52.044;7.472;2023-07-16T11:27:24;28.90;53.90
17887;DHT22;9069;52.044;7.472;2023-07-16T11:29:53;28.80;53.60
17887;DHT22;9069;52.044;7.472;2023-07-16T11:32:31;28.70;53.90
17887;DHT22;9069;52.044;7.472;2023-07-16T11:35:00;28.60;54.00
17887;DHT22;9069;52.044;7.472;2023-07-16T11:37:29;28.50;54.40
17887;DHT22;9069;52.044;7.472;2023-07-16T11:39:57;28.50;54.60
17887;DHT22;9069;52.044;7.472;2023-07-16T11:44:57;28.40;54.60
17887;DHT22;9069;52.044;7.472;2023-07-16T11:47:24;28.20;54.60
17887;DHT22;9069;52.044;7.472;2023-07-16T11:49:51;28.10;54.80
17887;DHT22;9069;52.044;7.472;2023-07-16T11:52:26;28.00;55.20
17887;DHT22;9069;52.044;7.472;2023-07-16T11:54:53;28.00;55.20
17887;DHT22;9069;52.044;7.472;2023-07-16T11:57:20;28.00;55.40
17887;DHT22;9069;52.044;7.472;2023-07-16T11:59:47;28.00;55.40
17887;DHT22;9069;52.044;7.472;2023-07-16T12:02:14;28.00;55.50
17887;DHT22;9069;52.044;7.472;2023-07-16T12:04:41;28.10;55.40
17887;DHT22;9069;52.044;7.472;2023-07-16T12:07:08;28.00;55.20
17887;DHT22;9069;52.044;7.472;2023-07-16T12:09:35;28.00;55.00
17887;DHT22;9069;52.044;7.472;2023-07-16T12:12:02;27.90;54.90
17887;DHT22;9069;52.044;7.472;2023-07-16T12:14:31;27.90;54.90
17887;DHT22;9069;52.044;7.472;2023-07-16T12:16:57;27.80;55.00
17887;DHT22;9069;52.044;7.472;2023-07-16T12:19:25;27.80;55.20
17887;DHT22;9069;52.044;7.472;2023-07-16T12:21:51;27.70;55.30
17887;DHT22;9069;52.044;7.472;2023-07-16T12:24:20;27.70;55.40
17887;DHT22;9069;52.044;7.472;2023-07-16T12:26:47;27.70;55.70
17887;DHT22;9069;52.044;7.472;2023-07-16T12:29:14;27.70;55.50
17887;DHT22;9069;52.044;7.472;2023-07-16T12:31:40;27.70;55.60
17887;DHT22;9069;52.044;7.472;2023-07-16T12:34:07;27.70;55.60
17887;DHT22;9069;52.044;7.472;2023-07-16T12:36:34;27.70;55.80
17887;DHT22;9069;52.044;7.472;2023-07-16T12:39:01;27.70;56.10
17887;DHT22;9069;52.044;7.472;2023-07-16T12:41:28;27.70;56.00
17887;DHT22;9069;52.044;7.472;2023-07-16T12:43:54;27.70;55.90
17887;DHT22;9069;52.044;7.472;2023-07-16T12:46:21;27.70;55.90
17887;DHT22;9069;52.044;7.472;2023-07-16T12:48:48;27.70;56.00
17887;DHT22;9069;52.044;7.472;2023-07-16T12:51:14;27.70;56.40
17887;DHT22;9069;52.044;7.472;2023-07-16T12:53:41;27.70;56.50
17887;DHT22;9069;52.044;7.472;2023-07-16T12:56:10;27.80;56.60
17887;DHT22;9069;52.044;7.472;2023-07-16T12:58:37;27.90;56.50
17887;DHT22;9069;52.044;7.472;2023-07-16T13:01:03;27.80;56.30
17887;DHT22;9069;52.044;7.472;2023-07-16T13:03:30;27.80;56.30
17887;DHT22;9069;52.044;7.472;2023-07-16T13:05:57;27.90;56.20
17887;DHT22;9069;52.044;7.472;2023-07-16T13:08:24;27.80;56.10
17887;DHT22;9069;52.044;7.472;2023-07-16T13:10:51;27.80;56.00
17887;DHT22;9069;52.044;7.472;2023-07-16T13:13:17;27.80;56.10
17887;DHT22;9069;52.044;7.472;2023-07-16T13:15:44;27.80;56.30
17887;DHT22;9069;52.044;7.472;2023-07-16T13:18:11;27.80;56.30
17887;DHT22;9069;52.044;7.472;2023-07-16T13:20:38;27.80;56.30
17887;DHT22;9069;52.044;7.472;2023-07-16T13:23:05;27.70;56.00
17887;DHT22;9069;52.044;7.472;2023-07-16T13:25:35;27.70;56.20
17887;DHT22;9069;52.044;7.472;2023-07-16T13:28:04;27.70;56.00
17887;DHT22;9069;52.044;7.472;2023-07-16T13:30:31;27.70;56.00
17887;DHT22;9069;52.044;7.472;2023-07-16T13:32:58;27.70;55.90
17887;DHT22;9069;52.044;7.472;2023-07-16T13:35:25;27.70;55.90
17887;DHT22;9069;52.044;7.472;2023-07-16T13:37:52;27.60;56.20
17887;DHT22;9069;52.044;7.472;2023-07-16T13:40:19;27.60;56.30
17887;DHT22;9069;52.044;7.472;2023-07-16T13:42:48;27.60;56.50
17887;DHT22;9069;52.044;7.472;2023-07-16T13:45:15;27.50;56.60
17887;DHT22;9069;52.044;7.472;2023-07-16T13:47:42;27.60;56.80
17887;DHT22;9069;52.044;7.472;2023-07-16T13:50:09;27.60;56.80
17887;DHT22;9069;52.044;7.472;2023-07-16T13:52:36;27.70;56.70
17887;DHT22;9069;52.044;7.472;2023-07-16T13:55:04;27.60;56.70
17887;DHT22;9069;52.044;7.472;2023-07-16T13:57:31;27.70;56.50
17887;DHT22;9069;52.044;7.472;2023-07-16T13:59:58;27.70;56.20
17887;DHT22;9069;52.044;7.472;2023-07-16T14:02:25;27.70;56.20
17887;DHT22;9069;52.044;7.472;2023-07-16T14:04:52;27.70;56.20
17887;DHT22;9069;52.044;7.472;2023-07-16T14:07:18;27.70;56.40
17887;DHT22;9069;52.044;7.472;2023-07-16T14:09:45;27.70;56.50
17887;DHT22;9069;52.044;7.472;2023-07-16T14:12:12;27.80;56.70
17887;DHT22;9069;52.044;7.472;2023-07-16T14:14:39;27.80;56.90
17887;DHT22;9069;52.044;7.472;2023-07-16T14:17:05;27.90;57.00
17887;DHT22;9069;52.044;7.472;2023-07-16T14:19:32;27.80;57.00
17887;DHT22;9069;52.044;7.472;2023-07-16T14:21:59;27.80;56.80
17887;DHT22;9069;52.044;7.472;2023-07-16T14:24:26;27.90;56.80
17887;DHT22;9069;52.044;7.472;2023-07-16T14:26:53;27.80;56.50
17887;DHT22;9069;52.044;7.472;2023-07-16T14:29:19;27.90;56.40
17887;DHT22;9069;52.044;7.472;2023-07-16T14:31:46;27.90;56.20
17887;DHT22;9069;52.044;7.472;2023-07-16T14:34:13;27.80;56.10
17887;DHT22;9069;52.044;7.472;2023-07-16T14:36:40;27.80;56.60
17887;DHT22;9069;52.044;7.472;2023-07-16T14:39:07;27.80;55.80
17887;DHT22;9069;52.044;7.472;2023-07-16T14:41:34;27.80;55.80
17887;DHT22;9069;52.044;7.472;2023-07-16T14:44:01;27.80;55.60
17887;DHT22;9069;52.044;7.472;2023-07-16T14:46:27;27.80;55.60
17887;DHT22;9069;52.044;7.472;2023-07-16T14:48:54;27.80;55.50
17887;DHT22;9069;52.044;7.472;2023-07-16T14:51:23;27.80;55.40
17887;DHT22;9069;52.044;7.472;2023-07-16T14:53:51;27.70;55.50
17887;DHT22;9069;52.044;7.472;2023-07-16T14:56:19;27.70;55.30
17887;DHT22;9069;52.044;7.472;2023-07-16T14:58:45;27.70;55.40
17887;DHT22;9069;52.044;7.472;2023-07-16T15:01:12;27.60;55.30
17887;DHT22;9069;52.044;7.472;2023-07-16T15:03:39;27.60;55.30
17887;DHT22;9069;52.044;7.472;2023-07-16T15:06:09;27.60;55.20
17887;DHT22;9069;52.044;7.472;2023-07-16T15:08:36;27.60;55.20
17887;DHT22;9069;52.044;7.472;2023-07-16T15:11:03;27.50;55.20
17887;DHT22;9069;52.044;7.472;2023-07-16T15:13:30;27.50;55.20
17887;DHT22;9069;52.044;7.472;2023-07-16T15:15:57;27.50;55.10
17887;DHT22;9069;52.044;7.472;2023-07-16T15:18:25;27.60;55.20
17887;DHT22;9069;52.044;7.472;2023-07-16T15:21:00;27.50;55.20
17887;DHT22;9069;52.044;7.472;2023-07-16T15:23:28;27.50;54.70
17887;DHT22;9069;52.044;7.472;2023-07-16T15:25:55;27.50;55.00
17887;DHT22;9069;52.044;7.472;2023-07-16T15:28:31;27.50;55.30
17887;DHT22;9069;52.044;7.472;2023-07-16T15:31:00;27.50;55.40
17887;DHT22;9069;52.044;7.472;2023-07-16T15:33:27;27.50;55.10
17887;DHT22;9069;52.044;7.472;2023-07-16T15:35:57;27.50;54.90
17887;DHT22;9069;52.044;7.472;2023-07-16T15:38:24;27.50;54.90
17887;DHT22;9069;52.044;7.472;2023-07-16T15:40:52;27.50;54.90
17887;DHT22;9069;52.044;7.472;2023-07-16T15:43:19;27.50;54.90
17887;DHT22;9069;52.044;7.472;2023-07-16T15:45:46;27.50;55.00
17887;DHT22;9069;52.044;7.472;2023-07-16T15:48:13;27.50;54.90
17887;DHT22;9069;52.044;7.472;2023-07-16T15:50:40;27.50;55.20
17887;DHT22;9069;52.044;7.472;2023-07-16T15:53:07;27.40;55.00
17887;DHT22;9069;52.044;7.472;2023-07-16T15:55:35;27.40;54.90